Kentucky Observed Data For Previous 48 Hours

Caption
Day and Hour Reservoir Elevation (behind dam)* Tailwater Elevation (below dam)* Average Hourly Discharge*
11/17/2017 1 AM CST 354.70 305.07 46,478
11/17/2017 2 AM CST 354.70 305.03 46,688
11/17/2017 3 AM CST 354.68 304.96 46,720
11/17/2017 4 AM CST 354.69 304.93 46,806
11/17/2017 5 AM CST 354.72 304.85 46,718
11/17/2017 6 AM CST 354.71 304.85 46,761
11/17/2017 7 AM CST 354.74 304.73 46,645
11/17/2017 8 AM CST 354.74 304.64 46,654
11/17/2017 9 AM CST 354.74 304.64 46,679
11/17/2017 10 AM CST 354.74 304.51 46,642
11/17/2017 11 AM CST 354.74 304.54 46,648
11/17/2017 12 PM CST 354.78 304.37 46,535
11/17/2017 1 PM CST 354.78 304.44 46,572
11/17/2017 2 PM CST 354.78 304.41 46,447
11/17/2017 3 PM CST 354.81 304.38 46,409
11/17/2017 4 PM CST 354.84 304.34 46,397
11/17/2017 5 PM CST 354.82 304.45 46,391
11/17/2017 6 PM CST 354.81 304.41 46,294
11/17/2017 7 PM CST 354.83 304.52 46,284
11/17/2017 8 PM CST 354.85 304.34 46,191
11/17/2017 9 PM CST 354.91 304.14 46,136
11/17/2017 10 PM CST 354.94 304.39 46,204
11/17/2017 11 PM CST 354.96 304.06 46,210
11/18/2017 12 AM CST 354.96 304.01 46,289
11/18/2017 1 AM CST 354.97 304.23 46,138
11/18/2017 2 AM CST 354.98 303.80 44,279
11/18/2017 3 AM CST 354.99 303.86 46,330
11/18/2017 4 AM CST 354.97 303.85 46,256
11/18/2017 5 AM CST 354.93 303.85 46,214
11/18/2017 6 AM CST 354.95 303.71 46,095
11/18/2017 7 AM CST 354.89 303.71 46,224
11/18/2017 8 AM CST 354.90 303.77 46,202
11/18/2017 9 AM CST 354.86 303.65 46,269
11/18/2017 10 AM CST 354.86 303.53 46,368
11/18/2017 11 AM CST 354.82 303.46 46,301
11/18/2017 12 PM CST 354.80 303.40 46,147
11/18/2017 1 PM CST 354.83 303.39 45,888
11/18/2017 2 PM CST 354.83 303.38 45,783
11/18/2017 3 PM CST 354.63 303.63 46,143
11/18/2017 4 PM CST 354.39 303.82 46,618
11/18/2017 5 PM CST 354.14 303.82 46,587
11/18/2017 6 PM CST - 999.00 - 999.00 39,927
11/18/2017 7 PM CST 353.93 302.90 33,267
11/18/2017 8 PM CST 354.03 302.01 22,603
11/18/2017 9 PM CST 354.17 301.83 21,546
11/18/2017 10 PM CST 354.35 301.70 21,409
11/18/2017 11 PM CST 354.44 302.29 28,098
11/19/2017 12 AM CST 354.53 301.95 28,590
11/19/2017 1 AM CST 354.60 301.81 28,524

Elevations are in feet above sea level. Discharges are in cubic feet per second and are reported at the end of the hour.